sensor_id;sensor_type;location;lat;lon;timestamp;P1;durP1;ratioP1;P2;durP2;ratioP2
44139;SDS011;29803;51.048;4.686;2024-01-25T00:00:32;79.50;;;10.35;;
44139;SDS011;29803;51.048;4.686;2024-01-25T00:03:03;81.20;;;9.32;;
44139;SDS011;29803;51.048;4.686;2024-01-25T00:05:33;64.15;;;10.05;;
44139;SDS011;29803;51.048;4.686;2024-01-25T00:08:04;66.68;;;8.48;;
44139;SDS011;29803;51.048;4.686;2024-01-25T00:10:34;69.72;;;9.27;;
44139;SDS011;29803;51.048;4.686;2024-01-25T00:13:05;68.72;;;9.00;;
44139;SDS011;29803;51.048;4.686;2024-01-25T00:15:35;62.78;;;9.45;;
44139;SDS011;29803;51.048;4.686;2024-01-25T00:18:06;62.40;;;9.65;;
44139;SDS011;29803;51.048;4.686;2024-01-25T00:20:37;67.65;;;9.38;;
44139;SDS011;29803;51.048;4.686;2024-01-25T00:23:07;64.07;;;8.75;;
44139;SDS011;29803;51.048;4.686;2024-01-25T00:25:38;74.03;;;11.90;;
44139;SDS011;29803;51.048;4.686;2024-01-25T00:28:08;70.63;;;9.60;;
44139;SDS011;29803;51.048;4.686;2024-01-25T00:30:39;68.90;;;10.10;;
44139;SDS011;29803;51.048;4.686;2024-01-25T00:33:10;63.80;;;8.88;;
44139;SDS011;29803;51.048;4.686;2024-01-25T00:35:40;56.58;;;9.07;;
44139;SDS011;29803;51.048;4.686;2024-01-25T00:38:11;68.80;;;9.15;;
44139;SDS011;29803;51.048;4.686;2024-01-25T00:40:42;64.72;;;8.80;;
44139;SDS011;29803;51.048;4.686;2024-01-25T00:43:13;78.60;;;10.45;;
44139;SDS011;29803;51.048;4.686;2024-01-25T00:45:44;73.15;;;9.57;;
44139;SDS011;29803;51.048;4.686;2024-01-25T00:48:15;53.47;;;8.15;;
44139;SDS011;29803;51.048;4.686;2024-01-25T00:50:46;61.90;;;8.15;;
44139;SDS011;29803;51.048;4.686;2024-01-25T00:53:17;75.95;;;8.35;;
44139;SDS011;29803;51.048;4.686;2024-01-25T00:55:48;58.25;;;9.65;;
44139;SDS011;29803;51.048;4.686;2024-01-25T00:58:19;76.97;;;10.98;;
44139;SDS011;29803;51.048;4.686;2024-01-25T01:00:50;71.82;;;9.18;;
44139;SDS011;29803;51.048;4.686;2024-01-25T01:03:20;76.70;;;10.25;;
44139;SDS011;29803;51.048;4.686;2024-01-25T01:05:51;66.97;;;9.48;;
44139;SDS011;29803;51.048;4.686;2024-01-25T01:08:22;67.38;;;9.30;;
44139;SDS011;29803;51.048;4.686;2024-01-25T01:10:52;79.25;;;9.60;;
44139;SDS011;29803;51.048;4.686;2024-01-25T01:13:23;78.88;;;9.32;;
44139;SDS011;29803;51.048;4.686;2024-01-25T01:15:53;76.18;;;9.48;;
44139;SDS011;29803;51.048;4.686;2024-01-25T01:18:24;66.50;;;8.43;;
44139;SDS011;29803;51.048;4.686;2024-01-25T01:20:54;69.13;;;9.15;;
44139;SDS011;29803;51.048;4.686;2024-01-25T01:23:25;71.15;;;9.05;;
44139;SDS011;29803;51.048;4.686;2024-01-25T01:25:55;72.68;;;11.35;;
44139;SDS011;29803;51.048;4.686;2024-01-25T01:28:26;70.55;;;9.85;;
44139;SDS011;29803;51.048;4.686;2024-01-25T01:30:56;70.60;;;10.50;;
44139;SDS011;29803;51.048;4.686;2024-01-25T01:33:27;71.57;;;8.73;;
44139;SDS011;29803;51.048;4.686;2024-01-25T01:35:57;81.40;;;8.82;;
44139;SDS011;29803;51.048;4.686;2024-01-25T01:38:28;66.57;;;9.20;;
44139;SDS011;29803;51.048;4.686;2024-01-25T01:40:58;74.68;;;10.93;;
44139;SDS011;29803;51.048;4.686;2024-01-25T01:43:29;91.63;;;11.18;;
44139;SDS011;29803;51.048;4.686;2024-01-25T01:46:00;66.57;;;8.98;;
44139;SDS011;29803;51.048;4.686;2024-01-25T01:48:38;79.38;;;11.57;;
44139;SDS011;29803;51.048;4.686;2024-01-25T01:51:09;75.70;;;9.15;;
44139;SDS011;29803;51.048;4.686;2024-01-25T01:53:40;78.47;;;9.35;;
44139;SDS011;29803;51.048;4.686;2024-01-25T01:56:11;64.00;;;9.90;;
44139;SDS011;29803;51.048;4.686;2024-01-25T01:58:41;85.50;;;9.48;;
44139;SDS011;29803;51.048;4.686;2024-01-25T02:01:12;77.85;;;9.82;;
44139;SDS011;29803;51.048;4.686;2024-01-25T02:03:43;59.15;;;8.50;;
44139;SDS011;29803;51.048;4.686;2024-01-25T02:06:14;77.05;;;9.98;;
44139;SDS011;29803;51.048;4.686;2024-01-25T02:08:44;73.03;;;10.20;;
44139;SDS011;29803;51.048;4.686;2024-01-25T02:11:15;78.85;;;10.48;;
44139;SDS011;29803;51.048;4.686;2024-01-25T02:13:46;80.88;;;11.23;;
44139;SDS011;29803;51.048;4.686;2024-01-25T02:16:17;86.18;;;11.13;;
44139;SDS011;29803;51.048;4.686;2024-01-25T02:18:49;74.88;;;10.23;;
44139;SDS011;29803;51.048;4.686;2024-01-25T02:21:19;72.55;;;9.85;;
44139;SDS011;29803;51.048;4.686;2024-01-25T02:23:50;83.78;;;11.88;;
44139;SDS011;29803;51.048;4.686;2024-01-25T02:26:21;75.22;;;8.32;;
44139;SDS011;29803;51.048;4.686;2024-01-25T02:28:51;69.28;;;9.98;;
44139;SDS011;29803;51.048;4.686;2024-01-25T02:31:22;82.03;;;9.60;;
44139;SDS011;29803;51.048;4.686;2024-01-25T02:33:52;72.57;;;9.95;;
44139;SDS011;29803;51.048;4.686;2024-01-25T02:36:23;79.15;;;10.77;;
44139;SDS011;29803;51.048;4.686;2024-01-25T02:38:53;73.90;;;10.50;;
44139;SDS011;29803;51.048;4.686;2024-01-25T02:41:23;89.38;;;11.15;;
44139;SDS011;29803;51.048;4.686;2024-01-25T02:43:54;85.68;;;10.00;;
44139;SDS011;29803;51.048;4.686;2024-01-25T02:46:24;73.80;;;10.35;;
44139;SDS011;29803;51.048;4.686;2024-01-25T02:48:55;76.30;;;10.43;;
44139;SDS011;29803;51.048;4.686;2024-01-25T02:51:26;78.80;;;10.23;;
44139;SDS011;29803;51.048;4.686;2024-01-25T02:53:57;68.25;;;9.88;;
44139;SDS011;29803;51.048;4.686;2024-01-25T02:56:27;81.47;;;9.70;;
44139;SDS011;29803;51.048;4.686;2024-01-25T02:59:03;61.55;;;8.95;;
44139;SDS011;29803;51.048;4.686;2024-01-25T03:01:40;74.15;;;8.15;;
44139;SDS011;29803;51.048;4.686;2024-01-25T03:04:11;65.45;;;8.55;;
44139;SDS011;29803;51.048;4.686;2024-01-25T03:06:42;85.70;;;10.27;;
44139;SDS011;29803;51.048;4.686;2024-01-25T03:09:13;53.58;;;8.75;;
44139;SDS011;29803;51.048;4.686;2024-01-25T03:11:43;79.13;;;10.15;;
44139;SDS011;29803;51.048;4.686;2024-01-25T03:14:14;75.43;;;9.77;;
44139;SDS011;29803;51.048;4.686;2024-01-25T03:16:45;82.75;;;9.55;;
44139;SDS011;29803;51.048;4.686;2024-01-25T03:19:15;59.65;;;8.55;;
44139;SDS011;29803;51.048;4.686;2024-01-25T03:21:46;49.95;;;7.50;;
44139;SDS011;29803;51.048;4.686;2024-01-25T03:24:18;51.30;;;7.38;;
44139;SDS011;29803;51.048;4.686;2024-01-25T03:26:48;61.03;;;8.75;;
44139;SDS011;29803;51.048;4.686;2024-01-25T03:29:19;44.38;;;5.72;;
44139;SDS011;29803;51.048;4.686;2024-01-25T03:31:50;51.60;;;7.20;;
44139;SDS011;29803;51.048;4.686;2024-01-25T03:34:20;49.63;;;6.82;;
44139;SDS011;29803;51.048;4.686;2024-01-25T03:36:51;58.28;;;7.13;;
44139;SDS011;29803;51.048;4.686;2024-01-25T03:39:23;37.22;;;5.88;;
44139;SDS011;29803;51.048;4.686;2024-01-25T03:41:54;31.80;;;4.82;;
44139;SDS011;29803;51.048;4.686;2024-01-25T03:44:24;31.60;;;5.72;;
44139;SDS011;29803;51.048;4.686;2024-01-25T03:46:55;58.05;;;8.68;;
44139;SDS011;29803;51.048;4.686;2024-01-25T03:49:25;57.42;;;8.02;;
44139;SDS011;29803;51.048;4.686;2024-01-25T03:51:56;59.15;;;7.88;;
44139;SDS011;29803;51.048;4.686;2024-01-25T03:54:26;38.22;;;7.72;;
44139;SDS011;29803;51.048;4.686;2024-01-25T03:56:57;95.90;;;7.70;;
44139;SDS011;29803;51.048;4.686;2024-01-25T03:59:27;45.10;;;6.70;;
44139;SDS011;29803;51.048;4.686;2024-01-25T04:01:58;58.63;;;8.70;;
44139;SDS011;29803;51.048;4.686;2024-01-25T04:04:28;59.55;;;6.72;;
44139;SDS011;29803;51.048;4.686;2024-01-25T04:06:59;52.97;;;6.22;;
44139;SDS011;29803;51.048;4.686;2024-01-25T04:09:29;40.30;;;5.85;;
44139;SDS011;29803;51.048;4.686;2024-01-25T04:12:00;54.78;;;6.57;;
44139;SDS011;29803;51.048;4.686;2024-01-25T04:14:30;53.72;;;7.25;;
44139;SDS011;29803;51.048;4.686;2024-01-25T04:17:00;65.15;;;8.23;;
44139;SDS011;29803;51.048;4.686;2024-01-25T04:19:31;58.03;;;8.40;;
44139;SDS011;29803;51.048;4.686;2024-01-25T04:22:02;46.25;;;6.55;;
44139;SDS011;29803;51.048;4.686;2024-01-25T04:24:32;53.28;;;6.90;;
44139;SDS011;29803;51.048;4.686;2024-01-25T04:27:03;50.00;;;6.35;;
44139;SDS011;29803;51.048;4.686;2024-01-25T04:29:37;31.48;;;6.05;;
44139;SDS011;29803;51.048;4.686;2024-01-25T04:32:09;55.83;;;6.20;;
44139;SDS011;29803;51.048;4.686;2024-01-25T04:34:39;53.25;;;6.25;;
44139;SDS011;29803;51.048;4.686;2024-01-25T04:37:10;50.50;;;5.72;;
44139;SDS011;29803;51.048;4.686;2024-01-25T04:39:40;44.42;;;5.68;;
44139;SDS011;29803;51.048;4.686;2024-01-25T04:42:11;51.30;;;6.80;;
44139;SDS011;29803;51.048;4.686;2024-01-25T04:44:41;32.22;;;4.60;;
44139;SDS011;29803;51.048;4.686;2024-01-25T04:47:12;39.90;;;5.45;;
44139;SDS011;29803;51.048;4.686;2024-01-25T04:49:42;28.35;;;4.53;;
44139;SDS011;29803;51.048;4.686;2024-01-25T04:52:13;48.95;;;6.68;;
44139;SDS011;29803;51.048;4.686;2024-01-25T04:54:43;78.55;;;9.65;;
44139;SDS011;29803;51.048;4.686;2024-01-25T04:57:14;71.70;;;9.85;;
44139;SDS011;29803;51.048;4.686;2024-01-25T04:59:44;60.75;;;6.90;;
44139;SDS011;29803;51.048;4.686;2024-01-25T05:02:15;56.80;;;8.50;;
44139;SDS011;29803;51.048;4.686;2024-01-25T05:04:45;43.40;;;6.63;;
44139;SDS011;29803;51.048;4.686;2024-01-25T05:07:16;43.20;;;9.27;;
44139;SDS011;29803;51.048;4.686;2024-01-25T05:09:46;50.45;;;5.68;;
44139;SDS011;29803;51.048;4.686;2024-01-25T05:12:16;36.17;;;5.88;;
44139;SDS011;29803;51.048;4.686;2024-01-25T05:14:47;44.53;;;6.40;;
44139;SDS011;29803;51.048;4.686;2024-01-25T05:17:18;28.23;;;5.75;;
44139;SDS011;29803;51.048;4.686;2024-01-25T05:19:48;40.15;;;5.85;;
44139;SDS011;29803;51.048;4.686;2024-01-25T05:22:19;38.75;;;6.30;;
44139;SDS011;29803;51.048;4.686;2024-01-25T05:24:51;39.75;;;6.10;;
44139;SDS011;29803;51.048;4.686;2024-01-25T05:27:22;40.75;;;5.55;;
44139;SDS011;29803;51.048;4.686;2024-01-25T05:29:53;25.73;;;4.00;;
44139;SDS011;29803;51.048;4.686;2024-01-25T05:32:23;18.98;;;3.90;;
44139;SDS011;29803;51.048;4.686;2024-01-25T05:34:54;28.23;;;4.40;;
44139;SDS011;29803;51.048;4.686;2024-01-25T05:37:24;21.90;;;4.22;;
44139;SDS011;29803;51.048;4.686;2024-01-25T05:39:55;33.03;;;3.97;;
44139;SDS011;29803;51.048;4.686;2024-01-25T05:42:26;14.45;;;2.67;;
44139;SDS011;29803;51.048;4.686;2024-01-25T05:44:56;20.60;;;3.33;;
44139;SDS011;29803;51.048;4.686;2024-01-25T05:47:26;23.85;;;3.65;;
44139;SDS011;29803;51.048;4.686;2024-01-25T05:49:57;27.00;;;4.35;;
44139;SDS011;29803;51.048;4.686;2024-01-25T05:52:28;25.15;;;4.50;;
44139;SDS011;29803;51.048;4.686;2024-01-25T05:54:59;57.92;;;9.02;;
44139;SDS011;29803;51.048;4.686;2024-01-25T05:57:29;26.95;;;4.47;;
44139;SDS011;29803;51.048;4.686;2024-01-25T06:00:00;38.97;;;5.07;;
44139;SDS011;29803;51.048;4.686;2024-01-25T06:02:30;35.67;;;5.43;;
44139;SDS011;29803;51.048;4.686;2024-01-25T06:05:01;24.95;;;4.72;;
44139;SDS011;29803;51.048;4.686;2024-01-25T06:07:32;35.88;;;5.35;;
44139;SDS011;29803;51.048;4.686;2024-01-25T06:10:02;39.70;;;5.43;;
44139;SDS011;29803;51.048;4.686;2024-01-25T06:12:33;38.95;;;7.18;;
44139;SDS011;29803;51.048;4.686;2024-01-25T06:15:04;39.72;;;6.75;;
44139;SDS011;29803;51.048;4.686;2024-01-25T06:17:35;50.60;;;10.90;;
44139;SDS011;29803;51.048;4.686;2024-01-25T06:20:06;47.83;;;8.68;;
44139;SDS011;29803;51.048;4.686;2024-01-25T06:22:37;48.25;;;8.38;;
44139;SDS011;29803;51.048;4.686;2024-01-25T06:25:07;71.05;;;7.22;;
44139;SDS011;29803;51.048;4.686;2024-01-25T06:27:38;73.72;;;9.55;;
44139;SDS011;29803;51.048;4.686;2024-01-25T06:30:09;66.55;;;9.63;;
44139;SDS011;29803;51.048;4.686;2024-01-25T06:32:40;48.92;;;8.25;;
44139;SDS011;29803;51.048;4.686;2024-01-25T06:35:11;56.00;;;8.43;;
44139;SDS011;29803;51.048;4.686;2024-01-25T06:37:41;43.65;;;8.38;;
44139;SDS011;29803;51.048;4.686;2024-01-25T06:40:12;112.82;;;10.73;;
44139;SDS011;29803;51.048;4.686;2024-01-25T06:42:42;82.88;;;10.77;;
44139;SDS011;29803;51.048;4.686;2024-01-25T06:45:15;65.88;;;11.45;;
44139;SDS011;29803;51.048;4.686;2024-01-25T06:47:45;82.57;;;10.75;;
44139;SDS011;29803;51.048;4.686;2024-01-25T06:50:16;45.65;;;8.00;;
44139;SDS011;29803;51.048;4.686;2024-01-25T06:52:47;48.22;;;6.65;;
44139;SDS011;29803;51.048;4.686;2024-01-25T06:55:18;54.95;;;8.15;;
44139;SDS011;29803;51.048;4.686;2024-01-25T06:57:48;61.10;;;8.95;;
44139;SDS011;29803;51.048;4.686;2024-01-25T07:00:19;79.93;;;10.02;;
44139;SDS011;29803;51.048;4.686;2024-01-25T07:02:50;77.40;;;11.20;;
44139;SDS011;29803;51.048;4.686;2024-01-25T07:05:21;74.80;;;12.23;;
44139;SDS011;29803;51.048;4.686;2024-01-25T07:07:52;55.38;;;7.15;;
44139;SDS011;29803;51.048;4.686;2024-01-25T07:10:22;51.33;;;7.35;;
44139;SDS011;29803;51.048;4.686;2024-01-25T07:12:53;65.72;;;9.80;;
44139;SDS011;29803;51.048;4.686;2024-01-25T07:15:24;92.25;;;12.25;;
44139;SDS011;29803;51.048;4.686;2024-01-25T07:17:55;67.07;;;10.57;;
44139;SDS011;29803;51.048;4.686;2024-01-25T07:20:25;70.18;;;8.98;;
44139;SDS011;29803;51.048;4.686;2024-01-25T07:22:56;70.40;;;9.52;;
44139;SDS011;29803;51.048;4.686;2024-01-25T07:25:27;49.17;;;9.48;;
44139;SDS011;29803;51.048;4.686;2024-01-25T07:27:57;53.53;;;9.18;;
44139;SDS011;29803;51.048;4.686;2024-01-25T07:30:28;41.40;;;8.70;;
44139;SDS011;29803;51.048;4.686;2024-01-25T07:32:58;42.15;;;9.77;;
44139;SDS011;29803;51.048;4.686;2024-01-25T07:35:29;47.45;;;7.82;;
44139;SDS011;29803;51.048;4.686;2024-01-25T07:37:59;45.95;;;8.27;;
44139;SDS011;29803;51.048;4.686;2024-01-25T07:40:30;59.85;;;10.95;;
44139;SDS011;29803;51.048;4.686;2024-01-25T07:43:00;56.17;;;10.48;;
44139;SDS011;29803;51.048;4.686;2024-01-25T07:45:31;56.38;;;11.77;;
44139;SDS011;29803;51.048;4.686;2024-01-25T07:48:02;43.67;;;9.43;;
44139;SDS011;29803;51.048;4.686;2024-01-25T07:50:33;57.42;;;9.68;;
44139;SDS011;29803;51.048;4.686;2024-01-25T07:53:04;45.83;;;8.93;;
44139;SDS011;29803;51.048;4.686;2024-01-25T07:55:34;76.70;;;12.43;;
44139;SDS011;29803;51.048;4.686;2024-01-25T07:58:05;45.05;;;8.13;;
44139;SDS011;29803;51.048;4.686;2024-01-25T08:00:35;63.85;;;12.02;;
44139;SDS011;29803;51.048;4.686;2024-01-25T08:03:06;62.65;;;13.80;;
44139;SDS011;29803;51.048;4.686;2024-01-25T08:05:36;64.57;;;15.25;;
44139;SDS011;29803;51.048;4.686;2024-01-25T08:08:07;69.13;;;14.02;;
44139;SDS011;29803;51.048;4.686;2024-01-25T08:10:38;51.42;;;12.50;;
44139;SDS011;29803;51.048;4.686;2024-01-25T08:13:08;55.65;;;11.38;;
44139;SDS011;29803;51.048;4.686;2024-01-25T08:15:39;61.17;;;10.40;;
44139;SDS011;29803;51.048;4.686;2024-01-25T08:18:10;47.00;;;10.70;;
44139;SDS011;29803;51.048;4.686;2024-01-25T08:20:41;63.22;;;9.63;;
44139;SDS011;29803;51.048;4.686;2024-01-25T08:23:11;59.38;;;10.48;;
44139;SDS011;29803;51.048;4.686;2024-01-25T08:25:43;52.78;;;11.32;;
44139;SDS011;29803;51.048;4.686;2024-01-25T08:28:14;57.47;;;11.02;;
44139;SDS011;29803;51.048;4.686;2024-01-25T08:30:44;81.57;;;12.43;;
44139;SDS011;29803;51.048;4.686;2024-01-25T08:33:15;69.82;;;11.65;;
44139;SDS011;29803;51.048;4.686;2024-01-25T08:35:46;60.20;;;9.95;;
44139;SDS011;29803;51.048;4.686;2024-01-25T08:38:16;78.18;;;11.48;;
44139;SDS011;29803;51.048;4.686;2024-01-25T08:40:47;39.38;;;8.80;;
44139;SDS011;29803;51.048;4.686;2024-01-25T08:43:17;42.53;;;8.82;;
44139;SDS011;29803;51.048;4.686;2024-01-25T08:45:48;50.00;;;8.25;;
44139;SDS011;29803;51.048;4.686;2024-01-25T08:48:18;34.70;;;7.28;;
44139;SDS011;29803;51.048;4.686;2024-01-25T08:50:48;57.20;;;8.48;;
44139;SDS011;29803;51.048;4.686;2024-01-25T08:53:23;50.57;;;9.53;;
44139;SDS011;29803;51.048;4.686;2024-01-25T08:55:57;60.17;;;10.65;;
44139;SDS011;29803;51.048;4.686;2024-01-25T08:58:27;50.92;;;9.93;;
44139;SDS011;29803;51.048;4.686;2024-01-25T09:00:58;62.53;;;10.13;;
44139;SDS011;29803;51.048;4.686;2024-01-25T09:03:28;62.50;;;10.98;;
44139;SDS011;29803;51.048;4.686;2024-01-25T09:05:59;57.22;;;10.80;;
44139;SDS011;29803;51.048;4.686;2024-01-25T09:08:35;53.92;;;10.48;;
44139;SDS011;29803;51.048;4.686;2024-01-25T09:11:05;64.57;;;11.02;;
44139;SDS011;29803;51.048;4.686;2024-01-25T09:13:36;60.85;;;12.05;;
44139;SDS011;29803;51.048;4.686;2024-01-25T09:16:06;79.55;;;12.48;;
44139;SDS011;29803;51.048;4.686;2024-01-25T09:18:37;73.40;;;11.70;;
44139;SDS011;29803;51.048;4.686;2024-01-25T09:21:07;66.57;;;13.63;;
44139;SDS011;29803;51.048;4.686;2024-01-25T09:23:38;69.07;;;14.00;;
44139;SDS011;29803;51.048;4.686;2024-01-25T09:26:09;69.55;;;14.52;;
44139;SDS011;29803;51.048;4.686;2024-01-25T09:28:40;83.15;;;15.05;;
44139;SDS011;29803;51.048;4.686;2024-01-25T09:31:10;77.10;;;15.52;;
44139;SDS011;29803;51.048;4.686;2024-01-25T09:33:41;75.10;;;16.73;;
44139;SDS011;29803;51.048;4.686;2024-01-25T09:36:11;73.55;;;16.02;;
44139;SDS011;29803;51.048;4.686;2024-01-25T09:38:42;78.53;;;15.88;;
44139;SDS011;29803;51.048;4.686;2024-01-25T09:41:13;65.78;;;14.93;;
44139;SDS011;29803;51.048;4.686;2024-01-25T09:43:45;61.08;;;14.35;;
44139;SDS011;29803;51.048;4.686;2024-01-25T09:46:16;72.70;;;17.33;;
44139;SDS011;29803;51.048;4.686;2024-01-25T09:48:48;66.25;;;16.35;;
44139;SDS011;29803;51.048;4.686;2024-01-25T09:51:19;70.32;;;17.02;;
44139;SDS011;29803;51.048;4.686;2024-01-25T09:53:50;68.95;;;18.15;;
44139;SDS011;29803;51.048;4.686;2024-01-25T09:56:23;67.60;;;17.40;;
44139;SDS011;29803;51.048;4.686;2024-01-25T09:58:55;63.15;;;16.48;;
44139;SDS011;29803;51.048;4.686;2024-01-25T10:01:26;63.20;;;18.25;;
44139;SDS011;29803;51.048;4.686;2024-01-25T10:03:57;73.03;;;18.10;;
44139;SDS011;29803;51.048;4.686;2024-01-25T10:06:27;69.45;;;16.92;;
44139;SDS011;29803;51.048;4.686;2024-01-25T10:08:58;52.63;;;17.63;;
44139;SDS011;29803;51.048;4.686;2024-01-25T10:11:29;64.80;;;18.15;;
44139;SDS011;29803;51.048;4.686;2024-01-25T10:14:05;65.15;;;18.77;;
44139;SDS011;29803;51.048;4.686;2024-01-25T10:16:38;62.78;;;18.48;;
44139;SDS011;29803;51.048;4.686;2024-01-25T10:19:09;52.83;;;18.05;;
44139;SDS011;29803;51.048;4.686;2024-01-25T10:21:41;57.40;;;18.13;;
44139;SDS011;29803;51.048;4.686;2024-01-25T10:24:12;62.72;;;17.70;;
44139;SDS011;29803;51.048;4.686;2024-01-25T10:26:43;69.18;;;19.55;;
44139;SDS011;29803;51.048;4.686;2024-01-25T10:29:14;76.55;;;22.55;;
44139;SDS011;29803;51.048;4.686;2024-01-25T10:31:45;72.65;;;20.55;;
44139;SDS011;29803;51.048;4.686;2024-01-25T10:34:15;78.00;;;22.30;;
44139;SDS011;29803;51.048;4.686;2024-01-25T10:36:47;75.60;;;19.98;;
44139;SDS011;29803;51.048;4.686;2024-01-25T10:39:18;75.22;;;21.15;;
44139;SDS011;29803;51.048;4.686;2024-01-25T10:41:51;80.05;;;20.98;;
44139;SDS011;29803;51.048;4.686;2024-01-25T10:44:22;80.57;;;19.92;;
44139;SDS011;29803;51.048;4.686;2024-01-25T10:46:53;77.25;;;20.25;;
44139;SDS011;29803;51.048;4.686;2024-01-25T10:49:24;76.35;;;19.33;;
44139;SDS011;29803;51.048;4.686;2024-01-25T10:51:56;76.95;;;19.92;;
44139;SDS011;29803;51.048;4.686;2024-01-25T10:54:27;69.80;;;20.05;;
44139;SDS011;29803;51.048;4.686;2024-01-25T10:56:58;72.43;;;21.05;;
44139;SDS011;29803;51.048;4.686;2024-01-25T10:59:29;91.00;;;21.73;;
44139;SDS011;29803;51.048;4.686;2024-01-25T11:02:01;96.13;;;23.02;;
44139;SDS011;29803;51.048;4.686;2024-01-25T11:04:32;83.95;;;21.38;;
44139;SDS011;29803;51.048;4.686;2024-01-25T11:07:08;83.25;;;21.27;;
44139;SDS011;29803;51.048;4.686;2024-01-25T11:09:39;88.63;;;21.42;;
44139;SDS011;29803;51.048;4.686;2024-01-25T11:12:11;80.60;;;21.10;;
44139;SDS011;29803;51.048;4.686;2024-01-25T11:14:43;68.75;;;20.00;;
44139;SDS011;29803;51.048;4.686;2024-01-25T11:17:15;67.97;;;19.33;;
44139;SDS011;29803;51.048;4.686;2024-01-25T11:19:52;74.28;;;19.88;;
44139;SDS011;29803;51.048;4.686;2024-01-25T11:22:23;80.35;;;20.13;;
44139;SDS011;29803;51.048;4.686;2024-01-25T11:25:13;73.72;;;19.77;;
44139;SDS011;29803;51.048;4.686;2024-01-25T11:27:50;74.43;;;18.65;;
44139;SDS011;29803;51.048;4.686;2024-01-25T11:30:21;77.68;;;18.77;;
44139;SDS011;29803;51.048;4.686;2024-01-25T11:32:52;68.22;;;18.90;;
44139;SDS011;29803;51.048;4.686;2024-01-25T11:35:22;75.93;;;19.95;;
44139;SDS011;29803;51.048;4.686;2024-01-25T11:37:53;74.75;;;19.55;;
44139;SDS011;29803;51.048;4.686;2024-01-25T11:40:23;64.25;;;18.40;;
44139;SDS011;29803;51.048;4.686;2024-01-25T11:42:54;63.25;;;18.17;;
44139;SDS011;29803;51.048;4.686;2024-01-25T11:45:25;53.47;;;17.63;;
44139;SDS011;29803;51.048;4.686;2024-01-25T11:47:56;66.88;;;17.05;;
44139;SDS011;29803;51.048;4.686;2024-01-25T11:50:26;58.35;;;19.00;;
44139;SDS011;29803;51.048;4.686;2024-01-25T11:52:57;66.95;;;18.80;;
44139;SDS011;29803;51.048;4.686;2024-01-25T11:55:28;63.38;;;18.90;;
44139;SDS011;29803;51.048;4.686;2024-01-25T11:57:58;72.20;;;19.00;;
44139;SDS011;29803;51.048;4.686;2024-01-25T12:00:29;64.45;;;18.83;;
44139;SDS011;29803;51.048;4.686;2024-01-25T12:03:00;58.97;;;16.58;;
44139;SDS011;29803;51.048;4.686;2024-01-25T12:05:30;67.82;;;18.90;;
44139;SDS011;29803;51.048;4.686;2024-01-25T12:08:01;59.50;;;17.65;;
44139;SDS011;29803;51.048;4.686;2024-01-25T12:10:39;71.22;;;17.98;;
44139;SDS011;29803;51.048;4.686;2024-01-25T12:13:09;58.78;;;16.25;;
44139;SDS011;29803;51.048;4.686;2024-01-25T12:15:40;56.92;;;14.80;;
44139;SDS011;29803;51.048;4.686;2024-01-25T12:18:11;56.30;;;15.10;;
44139;SDS011;29803;51.048;4.686;2024-01-25T12:20:41;71.63;;;19.48;;
44139;SDS011;29803;51.048;4.686;2024-01-25T12:23:12;55.67;;;17.27;;
44139;SDS011;29803;51.048;4.686;2024-01-25T12:25:43;67.65;;;16.73;;
44139;SDS011;29803;51.048;4.686;2024-01-25T12:28:15;60.75;;;17.23;;
44139;SDS011;29803;51.048;4.686;2024-01-25T12:30:46;67.35;;;17.33;;
44139;SDS011;29803;51.048;4.686;2024-01-25T12:33:16;75.15;;;18.90;;
44139;SDS011;29803;51.048;4.686;2024-01-25T12:35:47;71.80;;;18.17;;
44139;SDS011;29803;51.048;4.686;2024-01-25T12:38:17;56.78;;;16.33;;
44139;SDS011;29803;51.048;4.686;2024-01-25T12:40:48;65.65;;;17.58;;
44139;SDS011;29803;51.048;4.686;2024-01-25T12:43:19;61.17;;;16.98;;
44139;SDS011;29803;51.048;4.686;2024-01-25T12:45:52;75.70;;;16.45;;
44139;SDS011;29803;51.048;4.686;2024-01-25T12:48:22;67.20;;;16.48;;
44139;SDS011;29803;51.048;4.686;2024-01-25T12:50:53;66.00;;;16.10;;
44139;SDS011;29803;51.048;4.686;2024-01-25T12:53:23;66.57;;;16.80;;
44139;SDS011;29803;51.048;4.686;2024-01-25T12:55:54;74.78;;;17.48;;
44139;SDS011;29803;51.048;4.686;2024-01-25T12:58:24;73.18;;;17.17;;
44139;SDS011;29803;51.048;4.686;2024-01-25T13:00:55;62.22;;;15.05;;
44139;SDS011;29803;51.048;4.686;2024-01-25T13:03:25;64.50;;;15.82;;
44139;SDS011;29803;51.048;4.686;2024-01-25T13:05:56;58.25;;;15.45;;
44139;SDS011;29803;51.048;4.686;2024-01-25T13:08:26;73.38;;;18.92;;
44139;SDS011;29803;51.048;4.686;2024-01-25T13:10:57;62.33;;;15.93;;
44139;SDS011;29803;51.048;4.686;2024-01-25T13:13:27;57.92;;;15.77;;
44139;SDS011;29803;51.048;4.686;2024-01-25T13:15:58;69.30;;;15.93;;
44139;SDS011;29803;51.048;4.686;2024-01-25T13:18:28;68.93;;;16.90;;
44139;SDS011;29803;51.048;4.686;2024-01-25T13:20:59;61.78;;;16.75;;
44139;SDS011;29803;51.048;4.686;2024-01-25T13:23:29;64.07;;;17.65;;
44139;SDS011;29803;51.048;4.686;2024-01-25T13:26:01;72.63;;;19.30;;
44139;SDS011;29803;51.048;4.686;2024-01-25T13:28:31;74.55;;;18.50;;
44139;SDS011;29803;51.048;4.686;2024-01-25T13:31:02;79.15;;;18.35;;
44139;SDS011;29803;51.048;4.686;2024-01-25T13:33:33;67.32;;;18.17;;
44139;SDS011;29803;51.048;4.686;2024-01-25T13:36:03;56.65;;;16.45;;
44139;SDS011;29803;51.048;4.686;2024-01-25T13:38:38;64.75;;;17.92;;
44139;SDS011;29803;51.048;4.686;2024-01-25T13:41:09;67.82;;;18.75;;
44139;SDS011;29803;51.048;4.686;2024-01-25T13:43:40;57.30;;;17.05;;
44139;SDS011;29803;51.048;4.686;2024-01-25T13:46:10;55.22;;;15.25;;
44139;SDS011;29803;51.048;4.686;2024-01-25T13:48:42;56.78;;;16.02;;
44139;SDS011;29803;51.048;4.686;2024-01-25T13:51:12;65.40;;;17.83;;
44139;SDS011;29803;51.048;4.686;2024-01-25T13:53:43;69.05;;;17.27;;
44139;SDS011;29803;51.048;4.686;2024-01-25T13:56:14;70.00;;;18.15;;
44139;SDS011;29803;51.048;4.686;2024-01-25T13:58:45;65.72;;;18.77;;
44139;SDS011;29803;51.048;4.686;2024-01-25T14:01:16;63.42;;;18.85;;
44139;SDS011;29803;51.048;4.686;2024-01-25T14:03:47;68.82;;;18.48;;
44139;SDS011;29803;51.048;4.686;2024-01-25T14:06:17;64.25;;;18.48;;
44139;SDS011;29803;51.048;4.686;2024-01-25T14:08:48;70.55;;;19.02;;
44139;SDS011;29803;51.048;4.686;2024-01-25T14:11:19;66.28;;;18.48;;
44139;SDS011;29803;51.048;4.686;2024-01-25T14:13:49;67.80;;;18.95;;
44139;SDS011;29803;51.048;4.686;2024-01-25T14:16:20;62.92;;;18.98;;
44139;SDS011;29803;51.048;4.686;2024-01-25T14:18:51;67.85;;;19.20;;
44139;SDS011;29803;51.048;4.686;2024-01-25T14:21:21;60.28;;;18.65;;
44139;SDS011;29803;51.048;4.686;2024-01-25T14:23:52;66.28;;;18.77;;
44139;SDS011;29803;51.048;4.686;2024-01-25T14:26:23;57.63;;;18.33;;
44139;SDS011;29803;51.048;4.686;2024-01-25T14:28:53;60.65;;;17.85;;
44139;SDS011;29803;51.048;4.686;2024-01-25T14:31:24;68.68;;;19.15;;
44139;SDS011;29803;51.048;4.686;2024-01-25T14:33:54;59.28;;;18.23;;
44139;SDS011;29803;51.048;4.686;2024-01-25T14:36:25;52.03;;;16.95;;
44139;SDS011;29803;51.048;4.686;2024-01-25T14:38:55;49.63;;;17.38;;
44139;SDS011;29803;51.048;4.686;2024-01-25T14:41:26;59.50;;;17.88;;
44139;SDS011;29803;51.048;4.686;2024-01-25T14:43:56;59.83;;;17.77;;
44139;SDS011;29803;51.048;4.686;2024-01-25T14:46:27;51.65;;;16.70;;
44139;SDS011;29803;51.048;4.686;2024-01-25T14:48:58;70.97;;;18.65;;